sensor_id;sensor_type;location;lat;lon;timestamp;pressure;altitude;pressure_sealevel;temperature;humidity
3254;BME280;1639;42.804;23.342;2023-02-28T00:00:30;74029.28;;;-148.52;100.00
3254;BME280;1639;42.804;23.342;2023-02-28T00:02:55;74031.34;;;-148.52;100.00
3254;BME280;1639;42.804;23.342;2023-02-28T00:05:22;74039.63;;;-148.52;100.00
3254;BME280;1639;42.804;23.342;2023-02-28T00:07:49;74058.22;;;-148.52;100.00
3254;BME280;1639;42.804;23.342;2023-02-28T00:10:18;74068.59;;;-148.52;100.00
3254;BME280;1639;42.804;23.342;2023-02-28T00:12:46;74076.84;;;-148.52;100.00
3254;BME280;1639;42.804;23.342;2023-02-28T00:15:12;74081.00;;;-148.52;100.00
3254;BME280;1639;42.804;23.342;2023-02-28T00:17:38;74083.06;;;-148.52;100.00
3254;BME280;1639;42.804;23.342;2023-02-28T00:20:04;74085.13;;;-148.52;100.00
3254;BME280;1639;42.804;23.342;2023-02-28T00:22:33;74074.78;;;-148.52;100.00
3254;BME280;1639;42.804;23.342;2023-02-28T00:24:58;74066.50;;;-148.52;100.00
3254;BME280;1639;42.804;23.342;2023-02-28T00:27:24;74081.00;;;-148.52;100.00
3254;BME280;1639;42.804;23.342;2023-02-28T00:29:49;74085.13;;;-148.52;100.00
3254;BME280;1639;42.804;23.342;2023-02-28T00:32:15;74072.72;;;-148.52;100.00
3254;BME280;1639;42.804;23.342;2023-02-28T00:34:40;74083.06;;;-148.52;100.00
3254;BME280;1639;42.804;23.342;2023-02-28T00:37:07;74078.94;;;-148.52;100.00
3254;BME280;1639;42.804;23.342;2023-02-28T00:39:35;74081.00;;;-148.52;100.00
3254;BME280;1639;42.804;23.342;2023-02-28T00:42:01;74068.59;;;-148.52;100.00
3254;BME280;1639;42.804;23.342;2023-02-28T00:44:27;74072.72;;;-148.52;100.00
3254;BME280;1639;42.804;23.342;2023-02-28T00:46:53;74072.72;;;-148.52;100.00
3254;BME280;1639;42.804;23.342;2023-02-28T00:49:20;74070.66;;;-148.52;100.00
3254;BME280;1639;42.804;23.342;2023-02-28T00:51:46;74054.09;;;-148.52;100.00
3254;BME280;1639;42.804;23.342;2023-02-28T00:54:11;74049.97;;;-148.52;100.00
3254;BME280;1639;42.804;23.342;2023-02-28T00:56:36;74033.41;;;-148.52;100.00
3254;BME280;1639;42.804;23.342;2023-02-28T00:59:02;74033.41;;;-148.52;100.00
3254;BME280;1639;42.804;23.342;2023-02-28T01:01:27;74056.16;;;-148.52;100.00
3254;BME280;1639;42.804;23.342;2023-02-28T01:03:53;74095.47;;;-148.52;100.00
3254;BME280;1639;42.804;23.342;2023-02-28T01:06:18;74078.94;;;-148.52;100.00
3254;BME280;1639;42.804;23.342;2023-02-28T01:08:44;74070.66;;;-148.52;100.00
3254;BME280;1639;42.804;23.342;2023-02-28T01:11:15;74070.66;;;-148.52;100.00
3254;BME280;1639;42.804;23.342;2023-02-28T01:13:42;74078.94;;;-148.52;100.00
3254;BME280;1639;42.804;23.342;2023-02-28T01:16:08;74072.72;;;-148.52;100.00
3254;BME280;1639;42.804;23.342;2023-02-28T01:18:33;74066.50;;;-148.52;100.00
3254;BME280;1639;42.804;23.342;2023-02-28T01:21:06;74068.59;;;-148.52;100.00
3254;BME280;1639;42.804;23.342;2023-02-28T01:23:32;74085.13;;;-148.52;100.00
3254;BME280;1639;42.804;23.342;2023-02-28T01:26:06;74089.28;;;-148.52;100.00
3254;BME280;1639;42.804;23.342;2023-02-28T01:28:32;74089.28;;;-148.52;100.00
3254;BME280;1639;42.804;23.342;2023-02-28T01:30:57;74093.41;;;-148.52;100.00
3254;BME280;1639;42.804;23.342;2023-02-28T01:33:23;74101.69;;;-148.52;100.00
3254;BME280;1639;42.804;23.342;2023-02-28T01:35:48;74107.88;;;-148.52;100.00
3254;BME280;1639;42.804;23.342;2023-02-28T01:38:14;74114.09;;;-148.52;100.00
3254;BME280;1639;42.804;23.342;2023-02-28T01:40:39;74126.50;;;-148.52;100.00
3254;BME280;1639;42.804;23.342;2023-02-28T01:43:20;74126.50;;;-148.52;100.00
3254;BME280;1639;42.804;23.342;2023-02-28T01:45:45;74143.06;;;-148.52;100.00
3254;BME280;1639;42.804;23.342;2023-02-28T01:48:11;74147.19;;;-148.52;100.00
3254;BME280;1639;42.804;23.342;2023-02-28T01:50:40;74151.34;;;-148.52;100.00
3254;BME280;1639;42.804;23.342;2023-02-28T01:53:09;74176.16;;;-148.52;100.00
3254;BME280;1639;42.804;23.342;2023-02-28T01:55:37;74180.28;;;-148.52;100.00
3254;BME280;1639;42.804;23.342;2023-02-28T01:58:05;74190.63;;;-148.52;100.00
3254;BME280;1639;42.804;23.342;2023-02-28T02:00:32;74205.13;;;-148.52;100.00
3254;BME280;1639;42.804;23.342;2023-02-28T02:02:59;74205.13;;;-148.52;100.00
3254;BME280;1639;42.804;23.342;2023-02-28T02:05:28;74196.84;;;-148.52;100.00
3254;BME280;1639;42.804;23.342;2023-02-28T02:08:00;74198.91;;;-148.52;100.00
3254;BME280;1639;42.804;23.342;2023-02-28T02:10:32;74207.19;;;-148.52;100.00
3254;BME280;1639;42.804;23.342;2023-02-28T02:16:22;74190.63;;;-148.52;100.00
3254;BME280;1639;42.804;23.342;2023-02-28T02:35:14;74240.28;;;-148.52;100.00
3254;BME280;1639;42.804;23.342;2023-02-28T02:40:31;74246.50;;;-148.52;100.00
3254;BME280;1639;42.804;23.342;2023-02-28T02:43:13;74260.97;;;-148.52;100.00
3254;BME280;1639;42.804;23.342;2023-02-28T02:45:51;74273.41;;;-148.52;100.00
3254;BME280;1639;42.804;23.342;2023-02-28T02:48:21;74265.13;;;-148.52;100.00
3254;BME280;1639;42.804;23.342;2023-02-28T02:50:53;74258.91;;;-148.52;100.00
3254;BME280;1639;42.804;23.342;2023-02-28T02:53:25;74260.97;;;-148.52;100.00
3254;BME280;1639;42.804;23.342;2023-02-28T02:55:53;74263.03;;;-148.52;100.00
3254;BME280;1639;42.804;23.342;2023-02-28T02:58:23;74263.03;;;-148.52;100.00
3254;BME280;1639;42.804;23.342;2023-02-28T03:00:58;74267.19;;;-148.52;100.00
3254;BME280;1639;42.804;23.342;2023-02-28T03:03:25;74271.31;;;-148.52;100.00
3254;BME280;1639;42.804;23.342;2023-02-28T03:05:57;74263.03;;;-148.52;100.00
3254;BME280;1639;42.804;23.342;2023-02-28T03:08:25;74252.69;;;-148.52;100.00
3254;BME280;1639;42.804;23.342;2023-02-28T03:10:55;74260.97;;;-148.52;100.00
3254;BME280;1639;42.804;23.342;2023-02-28T03:25:10;74267.19;;;-148.52;100.00
3254;BME280;1639;42.804;23.342;2023-02-28T03:27:30;74296.16;;;-148.52;100.00
3254;BME280;1639;42.804;23.342;2023-02-28T03:30:09;74287.88;;;-148.52;100.00
3254;BME280;1639;42.804;23.342;2023-02-28T03:32:40;74304.44;;;-148.52;100.00
3254;BME280;1639;42.804;23.342;2023-02-28T03:35:16;74335.47;;;-148.52;100.00
3254;BME280;1639;42.804;23.342;2023-02-28T03:37:49;74358.22;;;-148.52;100.00
3254;BME280;1639;42.804;23.342;2023-02-28T03:40:22;74364.44;;;-148.52;100.00
3254;BME280;1639;42.804;23.342;2023-02-28T03:42:52;74370.63;;;-148.52;100.00
3254;BME280;1639;42.804;23.342;2023-02-28T03:45:26;74364.44;;;-148.52;100.00
3254;BME280;1639;42.804;23.342;2023-02-28T03:50:26;74378.91;;;-148.52;100.00
3254;BME280;1639;42.804;23.342;2023-02-28T03:53:08;74378.91;;;-148.52;100.00
3254;BME280;1639;42.804;23.342;2023-02-28T03:55:42;74378.91;;;-148.52;100.00
3254;BME280;1639;42.804;23.342;2023-02-28T04:00:46;74376.84;;;-148.52;100.00
3254;BME280;1639;42.804;23.342;2023-02-28T04:03:12;74370.63;;;-148.52;100.00
3254;BME280;1639;42.804;23.342;2023-02-28T04:05:48;74391.31;;;-148.52;100.00
3254;BME280;1639;42.804;23.342;2023-02-28T04:08:15;74403.72;;;-148.52;100.00
3254;BME280;1639;42.804;23.342;2023-02-28T04:10:41;74389.25;;;-148.52;100.00
3254;BME280;1639;42.804;23.342;2023-02-28T04:13:08;74412.00;;;-148.52;100.00
3254;BME280;1639;42.804;23.342;2023-02-28T04:15:34;74418.22;;;-148.52;100.00
3254;BME280;1639;42.804;23.342;2023-02-28T04:17:59;74436.84;;;-148.52;100.00
3254;BME280;1639;42.804;23.342;2023-02-28T04:20:24;74451.31;;;-148.52;100.00
3254;BME280;1639;42.804;23.342;2023-02-28T04:22:50;74436.84;;;-148.52;100.00
3254;BME280;1639;42.804;23.342;2023-02-28T04:25:15;74432.69;;;-148.52;100.00
3254;BME280;1639;42.804;23.342;2023-02-28T04:27:40;74447.19;;;-148.52;100.00
3254;BME280;1639;42.804;23.342;2023-02-28T04:30:06;74440.97;;;-148.52;100.00
3254;BME280;1639;42.804;23.342;2023-02-28T04:32:32;74412.00;;;-148.52;100.00
3254;BME280;1639;42.804;23.342;2023-02-28T04:34:57;74412.00;;;-148.52;100.00
3254;BME280;1639;42.804;23.342;2023-02-28T04:37:23;74447.19;;;-148.52;100.00
3254;BME280;1639;42.804;23.342;2023-02-28T04:39:53;74443.03;;;-148.52;100.00
3254;BME280;1639;42.804;23.342;2023-02-28T04:42:18;74420.28;;;-148.52;100.00
3254;BME280;1639;42.804;23.342;2023-02-28T04:44:43;74403.72;;;-148.52;100.00
3254;BME280;1639;42.804;23.342;2023-02-28T04:47:09;74383.03;;;-148.52;100.00
3254;BME280;1639;42.804;23.342;2023-02-28T04:49:34;74378.91;;;-148.52;100.00
3254;BME280;1639;42.804;23.342;2023-02-28T04:52:00;74372.69;;;-148.52;100.00
3254;BME280;1639;42.804;23.342;2023-02-28T04:54:25;74358.22;;;-148.52;100.00
3254;BME280;1639;42.804;23.342;2023-02-28T04:56:51;74354.06;;;-148.52;100.00
3254;BME280;1639;42.804;23.342;2023-02-28T04:59:17;74354.06;;;-148.52;100.00
3254;BME280;1639;42.804;23.342;2023-02-28T05:01:46;74358.22;;;-148.52;100.00
3254;BME280;1639;42.804;23.342;2023-02-28T05:04:12;74360.28;;;-148.52;100.00
3254;BME280;1639;42.804;23.342;2023-02-28T05:06:38;74362.34;;;-148.52;100.00
3254;BME280;1639;42.804;23.342;2023-02-28T05:09:03;74356.16;;;-148.52;100.00
3254;BME280;1639;42.804;23.342;2023-02-28T05:11:31;74358.22;;;-148.52;100.00
3254;BME280;1639;42.804;23.342;2023-02-28T05:14:02;74354.06;;;-148.52;100.00
3254;BME280;1639;42.804;23.342;2023-02-28T05:16:28;74345.81;;;-148.52;100.00
3254;BME280;1639;42.804;23.342;2023-02-28T05:18:53;74341.66;;;-148.52;100.00
3254;BME280;1639;42.804;23.342;2023-02-28T05:23:53;74335.47;;;-148.52;100.00
3254;BME280;1639;42.804;23.342;2023-02-28T05:26:19;74341.66;;;-148.52;100.00
3254;BME280;1639;42.804;23.342;2023-02-28T05:28:44;74354.06;;;-148.52;100.00
3254;BME280;1639;42.804;23.342;2023-02-28T05:31:13;74347.88;;;-148.52;100.00
3254;BME280;1639;42.804;23.342;2023-02-28T05:33:39;74354.06;;;-148.52;100.00
3254;BME280;1639;42.804;23.342;2023-02-28T05:36:05;74354.06;;;-148.52;100.00
3254;BME280;1639;42.804;23.342;2023-02-28T05:38:30;74341.66;;;-148.52;100.00
3254;BME280;1639;42.804;23.342;2023-02-28T05:40:56;74333.38;;;-148.52;100.00
3254;BME280;1639;42.804;23.342;2023-02-28T05:43:21;74329.25;;;-148.52;100.00
3254;BME280;1639;42.804;23.342;2023-02-28T05:45:47;74341.66;;;-148.52;100.00
3254;BME280;1639;42.804;23.342;2023-02-28T05:48:12;74345.81;;;-148.52;100.00
3254;BME280;1639;42.804;23.342;2023-02-28T05:50:37;74337.53;;;-148.52;100.00
3254;BME280;1639;42.804;23.342;2023-02-28T05:53:03;74333.38;;;-148.52;100.00
3254;BME280;1639;42.804;23.342;2023-02-28T05:55:28;74318.91;;;-148.52;100.00
3254;BME280;1639;42.804;23.342;2023-02-28T05:57:54;74318.91;;;-148.52;100.00
3254;BME280;1639;42.804;23.342;2023-02-28T06:00:21;74325.13;;;-148.52;100.00
3254;BME280;1639;42.804;23.342;2023-02-28T06:02:46;74316.84;;;-148.52;100.00
3254;BME280;1639;42.804;23.342;2023-02-28T06:05:17;74323.03;;;-148.52;100.00
3254;BME280;1639;42.804;23.342;2023-02-28T06:07:43;74320.97;;;-148.52;100.00
3254;BME280;1639;42.804;23.342;2023-02-28T06:10:12;74320.97;;;-148.52;100.00
3254;BME280;1639;42.804;23.342;2023-02-28T06:12:38;74308.56;;;-148.52;100.00
3254;BME280;1639;42.804;23.342;2023-02-28T06:15:04;74304.44;;;-148.52;100.00
3254;BME280;1639;42.804;23.342;2023-02-28T06:17:29;74300.28;;;-148.52;100.00
3254;BME280;1639;42.804;23.342;2023-02-28T06:19:55;74312.69;;;-148.52;100.00
3254;BME280;1639;42.804;23.342;2023-02-28T06:22:20;74300.28;;;-148.52;100.00
3254;BME280;1639;42.804;23.342;2023-02-28T06:24:45;74296.16;;;-148.52;100.00
3254;BME280;1639;42.804;23.342;2023-02-28T06:27:11;74296.16;;;-148.52;100.00
3254;BME280;1639;42.804;23.342;2023-02-28T06:29:36;74316.84;;;-148.52;100.00
3254;BME280;1639;42.804;23.342;2023-02-28T06:32:05;74304.44;;;-148.52;100.00
3254;BME280;1639;42.804;23.342;2023-02-28T06:34:30;74308.56;;;-148.52;100.00
3254;BME280;1639;42.804;23.342;2023-02-28T06:36:56;74318.91;;;-148.52;100.00
3254;BME280;1639;42.804;23.342;2023-02-28T06:39:21;74349.94;;;-148.52;100.00
3254;BME280;1639;42.804;23.342;2023-02-28T06:41:47;74341.66;;;-148.52;100.00
3254;BME280;1639;42.804;23.342;2023-02-28T06:44:15;74333.38;;;-148.52;100.00
3254;BME280;1639;42.804;23.342;2023-02-28T06:46:42;74352.00;;;-148.52;100.00
3254;BME280;1639;42.804;23.342;2023-02-28T06:49:08;74341.66;;;-148.52;100.00
3254;BME280;1639;42.804;23.342;2023-02-28T06:51:35;74354.06;;;-148.52;100.00
3254;BME280;1639;42.804;23.342;2023-02-28T06:54:01;74354.06;;;-148.52;100.00
3254;BME280;1639;42.804;23.342;2023-02-28T06:56:26;74341.66;;;-148.52;100.00
3254;BME280;1639;42.804;23.342;2023-02-28T06:58:52;74345.81;;;-148.52;100.00
3254;BME280;1639;42.804;23.342;2023-02-28T07:01:21;74335.47;;;-148.52;100.00
3254;BME280;1639;42.804;23.342;2023-02-28T07:03:48;74325.13;;;-148.52;100.00
3254;BME280;1639;42.804;23.342;2023-02-28T07:06:18;74312.69;;;-148.52;100.00
3254;BME280;1639;42.804;23.342;2023-02-28T07:08:44;74329.25;;;-148.52;100.00
3254;BME280;1639;42.804;23.342;2023-02-28T07:11:09;74327.19;;;-148.52;100.00
3254;BME280;1639;42.804;23.342;2023-02-28T07:13:35;74318.91;;;-148.52;100.00
3254;BME280;1639;42.804;23.342;2023-02-28T07:16:03;74287.88;;;-148.52;100.00
3254;BME280;1639;42.804;23.342;2023-02-28T07:18:29;74265.13;;;-148.52;100.00
3254;BME280;1639;42.804;23.342;2023-02-28T07:20:55;74244.44;;;-148.52;100.00
3254;BME280;1639;42.804;23.342;2023-02-28T07:23:21;74236.16;;;-148.52;100.00
3254;BME280;1639;42.804;23.342;2023-02-28T07:25:47;74229.94;;;-148.52;100.00
3254;BME280;1639;42.804;23.342;2023-02-28T07:28:14;74211.31;;;-148.52;100.00
3254;BME280;1639;42.804;23.342;2023-02-28T07:30:40;74186.50;;;-148.52;100.00
3254;BME280;1639;42.804;23.342;2023-02-28T07:33:06;74174.09;;;-148.52;100.00
3254;BME280;1639;42.804;23.342;2023-02-28T07:35:32;74161.69;;;-148.52;100.00
3254;BME280;1639;42.804;23.342;2023-02-28T07:37:58;74151.34;;;-148.52;100.00
3254;BME280;1639;42.804;23.342;2023-02-28T07:40:24;74126.50;;;-148.52;100.00
3254;BME280;1639;42.804;23.342;2023-02-28T07:42:50;74122.38;;;-148.52;100.00
3254;BME280;1639;42.804;23.342;2023-02-28T07:45:16;74143.06;;;-148.52;100.00
3254;BME280;1639;42.804;23.342;2023-02-28T07:47:43;74107.88;;;-148.52;100.00
3254;BME280;1639;42.804;23.342;2023-02-28T07:50:11;74097.53;;;-148.52;100.00
3254;BME280;1639;42.804;23.342;2023-02-28T07:52:37;74074.78;;;-148.52;100.00
3254;BME280;1639;42.804;23.342;2023-02-28T07:55:04;74072.72;;;-148.52;100.00
3254;BME280;1639;42.804;23.342;2023-02-28T07:57:30;74047.88;;;-148.52;100.00
3254;BME280;1639;42.804;23.342;2023-02-28T07:59:55;74039.63;;;-148.52;100.00
3254;BME280;1639;42.804;23.342;2023-02-28T08:02:20;74035.47;;;-148.52;100.00
3254;BME280;1639;42.804;23.342;2023-02-28T08:04:46;74008.59;;;-148.52;100.00
3254;BME280;1639;42.804;23.342;2023-02-28T08:07:13;73994.09;;;-148.52;100.00
3254;BME280;1639;42.804;23.342;2023-02-28T08:09:39;74000.31;;;-148.52;100.00
3254;BME280;1639;42.804;23.342;2023-02-28T08:12:06;74010.66;;;-148.52;100.00
3254;BME280;1639;42.804;23.342;2023-02-28T08:14:32;74010.66;;;-148.52;100.00
3254;BME280;1639;42.804;23.342;2023-02-28T08:16:58;73994.09;;;-148.52;100.00
3254;BME280;1639;42.804;23.342;2023-02-28T08:19:23;74006.53;;;-148.52;100.00
3254;BME280;1639;42.804;23.342;2023-02-28T08:21:48;73981.69;;;-148.52;100.00
3254;BME280;1639;42.804;23.342;2023-02-28T08:24:14;73954.81;;;-148.52;100.00
3254;BME280;1639;42.804;23.342;2023-02-28T08:26:39;73944.47;;;-148.52;100.00
3254;BME280;1639;42.804;23.342;2023-02-28T08:29:05;73938.25;;;-148.52;100.00
3254;BME280;1639;42.804;23.342;2023-02-28T08:31:30;73929.97;;;-148.52;100.00
3254;BME280;1639;42.804;23.342;2023-02-28T08:33:55;73923.78;;;-148.52;100.00
3254;BME280;1639;42.804;23.342;2023-02-28T08:36:24;73901.00;;;-148.52;100.00
3254;BME280;1639;42.804;23.342;2023-02-28T08:38:49;73884.47;;;-148.52;100.00
3254;BME280;1639;42.804;23.342;2023-02-28T08:41:15;73867.91;;;-148.52;100.00
3254;BME280;1639;42.804;23.342;2023-02-28T08:43:41;73845.16;;;-148.52;100.00
3254;BME280;1639;42.804;23.342;2023-02-28T08:46:07;73836.88;;;-148.52;100.00
3254;BME280;1639;42.804;23.342;2023-02-28T08:48:34;73824.47;;;-148.52;100.00
3254;BME280;1639;42.804;23.342;2023-02-28T08:51:02;73818.25;;;-148.52;100.00
3254;BME280;1639;42.804;23.342;2023-02-28T08:53:28;73826.53;;;-148.52;100.00
3254;BME280;1639;42.804;23.342;2023-02-28T08:56:01;73816.19;;;-148.52;100.00
3254;BME280;1639;42.804;23.342;2023-02-28T08:58:27;73818.25;;;-148.52;100.00
3254;BME280;1639;42.804;23.342;2023-02-28T09:00:53;73828.59;;;-148.52;100.00
3254;BME280;1639;42.804;23.342;2023-02-28T09:03:20;73803.78;;;-148.52;100.00
3254;BME280;1639;42.804;23.342;2023-02-28T09:05:59;73816.19;;;-148.52;100.00
3254;BME280;1639;42.804;23.342;2023-02-28T09:08:27;73828.59;;;-148.52;100.00
3254;BME280;1639;42.804;23.342;2023-02-28T09:10:53;73822.41;;;-148.52;100.00
3254;BME280;1639;42.804;23.342;2023-02-28T09:13:19;73818.25;;;-148.52;100.00
3254;BME280;1639;42.804;23.342;2023-02-28T09:15:45;73820.34;;;-148.52;100.00
3254;BME280;1639;42.804;23.342;2023-02-28T09:18:11;73803.78;;;-148.52;100.00
3254;BME280;1639;42.804;23.342;2023-02-28T09:20:41;73785.16;;;-148.52;100.00
3254;BME280;1639;42.804;23.342;2023-02-28T09:23:07;73787.25;;;-148.52;100.00
3254;BME280;1639;42.804;23.342;2023-02-28T09:25:33;73770.69;;;-148.52;100.00
3254;BME280;1639;42.804;23.342;2023-02-28T09:27:59;73750.00;;;-148.52;100.00
3254;BME280;1639;42.804;23.342;2023-02-28T09:30:25;73756.22;;;-148.52;100.00
3254;BME280;1639;42.804;23.342;2023-02-28T09:32:50;73741.72;;;-148.52;100.00
3254;BME280;1639;42.804;23.342;2023-02-28T09:35:23;73735.53;;;-148.52;100.00
3254;BME280;1639;42.804;23.342;2023-02-28T09:37:50;73729.31;;;-148.52;100.00
3254;BME280;1639;42.804;23.342;2023-02-28T09:40:18;73723.09;;;-148.52;100.00
3254;BME280;1639;42.804;23.342;2023-02-28T09:42:46;73716.91;;;-148.52;100.00
3254;BME280;1639;42.804;23.342;2023-02-28T09:45:23;73731.38;;;-148.52;100.00
3254;BME280;1639;42.804;23.342;2023-02-28T09:47:51;73747.94;;;-148.52;100.00
3254;BME280;1639;42.804;23.342;2023-02-28T09:50:35;73741.72;;;-148.52;100.00
3254;BME280;1639;42.804;23.342;2023-02-28T09:55:45;73733.44;;;-148.52;100.00
3254;BME280;1639;42.804;23.342;2023-02-28T09:58:23;73752.06;;;-148.52;100.00
3254;BME280;1639;42.804;23.342;2023-02-28T10:01:09;73741.72;;;-148.52;100.00
3254;BME280;1639;42.804;23.342;2023-02-28T10:03:40;73729.31;;;-148.52;100.00
3254;BME280;1639;42.804;23.342;2023-02-28T10:06:18;73716.91;;;-148.52;100.00
3254;BME280;1639;42.804;23.342;2023-02-28T10:08:58;73702.44;;;-148.52;100.00
3254;BME280;1639;42.804;23.342;2023-02-28T10:11:27;73694.16;;;-148.52;100.00
3254;BME280;1639;42.804;23.342;2023-02-28T10:14:18;73700.34;;;-148.52;100.00
3254;BME280;1639;42.804;23.342;2023-02-28T10:16:48;73687.94;;;-148.52;100.00
3254;BME280;1639;42.804;23.342;2023-02-28T10:22:11;73654.84;;;-148.52;100.00
3254;BME280;1639;42.804;23.342;2023-02-28T10:24:43;73658.97;;;-148.52;100.00
3254;BME280;1639;42.804;23.342;2023-02-28T10:27:18;73642.44;;;-148.52;100.00
3254;BME280;1639;42.804;23.342;2023-02-28T10:30:09;73638.31;;;-148.52;100.00
3254;BME280;1639;42.804;23.342;2023-02-28T10:32:35;73621.75;;;-148.52;100.00
3254;BME280;1639;42.804;23.342;2023-02-28T10:37:37;73613.47;;;-148.52;100.00
3254;BME280;1639;42.804;23.342;2023-02-28T10:40:05;73615.53;;;-148.52;100.00
3254;BME280;1639;42.804;23.342;2023-02-28T10:42:31;73625.88;;;-148.52;100.00
3254;BME280;1639;42.804;23.342;2023-02-28T10:45:16;73609.34;;;-148.52;100.00
3254;BME280;1639;42.804;23.342;2023-02-28T11:01:44;73526.59;;;-148.52;100.00
3254;BME280;1639;42.804;23.342;2023-02-28T11:06:44;73518.31;;;-148.52;100.00
3254;BME280;1639;42.804;23.342;2023-02-28T11:11:55;73485.22;;;-148.52;100.00
3254;BME280;1639;42.804;23.342;2023-02-28T11:14:29;73474.88;;;-148.52;100.00
3254;BME280;1639;42.804;23.342;2023-02-28T11:16:59;73487.31;;;-148.52;100.00
3254;BME280;1639;42.804;23.342;2023-02-28T11:19:32;73481.09;;;-148.52;100.00
3254;BME280;1639;42.804;23.342;2023-02-28T11:22:03;73468.69;;;-148.52;100.00
3254;BME280;1639;42.804;23.342;2023-02-28T11:24:57;73452.13;;;-148.52;100.00
3254;BME280;1639;42.804;23.342;2023-02-28T11:29:55;73476.97;;;-148.52;100.00
3254;BME280;1639;42.804;23.342;2023-02-28T11:32:22;73505.91;;;-148.52;100.00
3254;BME280;1639;42.804;23.342;2023-02-28T11:37:35;73489.38;;;-148.52;100.00
3254;BME280;1639;42.804;23.342;2023-02-28T11:40:01;73485.22;;;-148.52;100.00
3254;BME280;1639;42.804;23.342;2023-02-28T11:42:44;73481.09;;;-148.52;100.00
3254;BME280;1639;42.804;23.342;2023-02-28T11:45:18;73454.19;;;-148.52;100.00
3254;BME280;1639;42.804;23.342;2023-02-28T11:47:59;73419.03;;;-148.52;100.00
3254;BME280;1639;42.804;23.342;2023-02-28T11:52:53;73400.41;;;-148.52;100.00
3254;BME280;1639;42.804;23.342;2023-02-28T11:58:38;73408.69;;;-148.52;100.00
3254;BME280;1639;42.804;23.342;2023-02-28T12:04:26;73458.34;;;-148.52;100.00
3254;BME280;1639;42.804;23.342;2023-02-28T12:07:09;73421.09;;;-148.52;100.00
3254;BME280;1639;42.804;23.342;2023-02-28T12:09:50;73419.03;;;-148.52;100.00
3254;BME280;1639;42.804;23.342;2023-02-28T12:15:32;73410.75;;;-148.52;100.00
3254;BME280;1639;42.804;23.342;2023-02-28T12:26:22;73419.03;;;-148.52;100.00
3254;BME280;1639;42.804;23.342;2023-02-28T12:29:09;73402.50;;;-148.52;100.00
3254;BME280;1639;42.804;23.342;2023-02-28T12:34:49;73445.94;;;-148.52;100.00
3254;BME280;1639;42.804;23.342;2023-02-28T12:37:29;73433.53;;;-148.52;100.00
3254;BME280;1639;42.804;23.342;2023-02-28T12:40:01;73462.47;;;-148.52;100.00
3254;BME280;1639;42.804;23.342;2023-02-28T12:42:39;73448.00;;;-148.52;100.00
3254;BME280;1639;42.804;23.342;2023-02-28T12:45:21;73414.91;;;-148.52;100.00
3254;BME280;1639;42.804;23.342;2023-02-28T12:47:56;73402.50;;;-148.52;100.00
3254;BME280;1639;42.804;23.342;2023-02-28T12:50:24;73408.69;;;-148.52;100.00
3254;BME280;1639;42.804;23.342;2023-02-28T12:55:56;73427.31;;;-148.52;100.00
3254;BME280;1639;42.804;23.342;2023-02-28T12:58:29;73429.38;;;-148.52;100.00
3254;BME280;1639;42.804;23.342;2023-02-28T13:09:09;73431.44;;;-148.52;100.00
3254;BME280;1639;42.804;23.342;2023-02-28T13:11:50;73460.41;;;-148.52;100.00
3254;BME280;1639;42.804;23.342;2023-02-28T13:19:37;73507.97;;;-148.52;100.00
3254;BME280;1639;42.804;23.342;2023-02-28T13:22:03;73510.06;;;-148.52;100.00
3254;BME280;1639;42.804;23.342;2023-02-28T13:24:37;73530.75;;;-148.52;100.00
3254;BME280;1639;42.804;23.342;2023-02-28T13:29:48;73532.81;;;-148.52;100.00
3254;BME280;1639;42.804;23.342;2023-02-28T13:39:55;73539.00;;;-148.52;100.00
3254;BME280;1639;42.804;23.342;2023-02-28T13:42:22;73530.75;;;-148.52;100.00
3254;BME280;1639;42.804;23.342;2023-02-28T13:47:52;73555.56;;;-148.52;100.00
3254;BME280;1639;42.804;23.342;2023-02-28T13:50:31;73553.50;;;-148.52;100.00
3254;BME280;1639;42.804;23.342;2023-02-28T13:58:41;73572.09;;;-148.52;100.00
3254;BME280;1639;42.804;23.342;2023-02-28T14:06:37;73570.03;;;-148.52;100.00
3254;BME280;1639;42.804;23.342;2023-02-28T14:09:21;73578.31;;;-148.52;100.00
3254;BME280;1639;42.804;23.342;2023-02-28T14:11:48;73576.25;;;-148.52;100.00
3254;BME280;1639;42.804;23.342;2023-02-28T14:17:03;73570.03;;;-148.52;100.00
3254;BME280;1639;42.804;23.342;2023-02-28T14:19:34;73565.91;;;-148.52;100.00
3254;BME280;1639;42.804;23.342;2023-02-28T14:25:23;73580.38;;;-148.52;100.00
3254;BME280;1639;42.804;23.342;2023-02-28T14:30:56;73613.47;;;-148.52;100.00
3254;BME280;1639;42.804;23.342;2023-02-28T14:33:27;73661.06;;;-148.52;100.00
3254;BME280;1639;42.804;23.342;2023-02-28T14:36:04;73669.31;;;-148.52;100.00
3254;BME280;1639;42.804;23.342;2023-02-28T14:38:35;73665.19;;;-148.52;100.00
3254;BME280;1639;42.804;23.342;2023-02-28T14:41:04;73667.25;;;-148.52;100.00
3254;BME280;1639;42.804;23.342;2023-02-28T14:43:32;73702.44;;;-148.52;100.00
3254;BME280;1639;42.804;23.342;2023-02-28T14:46:00;73708.63;;;-148.52;100.00
3254;BME280;1639;42.804;23.342;2023-02-28T14:48:26;73718.97;;;-148.52;100.00
3254;BME280;1639;42.804;23.342;2023-02-28T14:50:57;73723.09;;;-148.52;100.00
3254;BME280;1639;42.804;23.342;2023-02-28T14:53:27;73729.31;;;-148.52;100.00
3254;BME280;1639;42.804;23.342;2023-02-28T14:55:53;73725.19;;;-148.52;100.00
3254;BME280;1639;42.804;23.342;2023-02-28T14:58:31;73745.88;;;-148.52;100.00
3254;BME280;1639;42.804;23.342;2023-02-28T15:00:59;73731.38;;;-148.52;100.00
3254;BME280;1639;42.804;23.342;2023-02-28T15:03:31;73723.09;;;-148.52;100.00
3254;BME280;1639;42.804;23.342;2023-02-28T15:05:59;73754.13;;;-148.52;100.00
3254;BME280;1639;42.804;23.342;2023-02-28T15:08:25;73770.69;;;-148.52;100.00
3254;BME280;1639;42.804;23.342;2023-02-28T15:10:58;73797.59;;;-148.52;100.00
3254;BME280;1639;42.804;23.342;2023-02-28T15:13:46;73795.50;;;-148.52;100.00
3254;BME280;1639;42.804;23.342;2023-02-28T15:16:32;73805.84;;;-148.52;100.00